Brooklyn Center, MN (55430)

8:47 PM CDT on August 31, 2015 (GMT -0500)
Dupont Ave | | Change Station
CLOSE
Current Station
Personal Weather Station
Location: Brooklyn Center, MN
Elevation: 850 ft
Nearby Weather Stations

Elev 850 ft 45.06 °N, 93.29 °W | Updated 31 seconds ago

Clear
Clear
78.0 °F
Feels Like 80 °F
N
0.0
Wind Variable Wind from SSW
Gusts 0.0 mph

Today
High -- | Low -- °F
--% Chance of Precip.
Yesterday
High -- | Low -- °F
Precip. -- in
6:33 AM 7:52 PM
Waning Gibbous, 92% visible
Pressure 29.85 in
Visibility 8.0 miles
Clouds Clear
Heat Index 80 °F
Dew Point 71 °F
Humidity 78%
Rainfall 0.00 in
Snow Depth Not available.
UV 0 out of 12
Pollen 9.40 out of 12
Air Quality Not available.
Flu Activity Not available.
METAR KMIC 010053Z 18006KT 8SM CLR 27/20 A2987 RMK AO2 SLP108 T02720200
Pressure 29.85 in
Visibility 8.0 miles
Clouds Clear
Heat Index 80 °F
Dew Point 71 °F
Humidity 78%
Rainfall 0.00 in
Snow Depth Not available.
UV 0 out of 12
Pollen 9.40 out of 12
Air Quality Not available.
Flu Activity Not available.
METAR KMIC 010053Z 18006KT 8SM CLR 27/20 A2987 RMK AO2 SLP108 T02720200

10-Day Weather Forecast

×

Almanac

Astronomy

Aug. 31, 2015 Rise Set
Actual Time
Civil Twilight
Nautical Twilight
Astronomical Twilight
Moon
Length of Visible Light
Length of Day
Tomorrow will be .
, % of the Moon is Illuminated

Today's Extremes

State Highs State Lows

Community

WunderPhotos

Upload Photos

1,851,427 photos uploaded!

WunderBlogs® & News

Nearby

Air Quality

  Air Quality AQ Index Pollutant
Not available.

Snow Depth

Station Depth Elevation

Earthquake Activity

City Distance Mag. Time & Date
Minimum magnitude displayed is 2.5.

Coastal Water Temperatures

Place Temperature

Stations

Nearby Weather Stations

Station Location Temp. Windchill Dew Point Humidity Wind Precip. Elev Updated Type